Time;durP1;ratioP1;P1;durP2;ratioP2;P2;SDS_P1;SDS_P2;PMS_P1;PMS_P2;Temp;Humidity;BMP_temperature;BMP_pressure;BME280_temperature;BME280_humidity;BME280_pressure;Samples;Min_cycle;Max_cycle;Signal;HPM_P1;HPM_P2
2021/05/18 00:01:28;;;;;;;0.70;0.70;;;9.90;99.90;;;10.30;100.00;-20962.28;5052988;28;20955;-73
2021/05/18 00:03:56;;;;;;;0.70;0.70;;;9.90;99.90;;;10.31;100.00;-20962.56;5052554;28;20882;-73
2021/05/18 00:06:24;;;;;;;0.70;0.70;;;9.90;99.90;;;10.31;100.00;-20962.56;5052492;28;20447;-73
2021/05/18 00:11:44;;;;;;;0.70;0.60;;;9.90;99.90;;;10.32;100.00;-20962.84;5052743;28;20447;-73
2021/05/18 00:14:17;;;;;;;0.70;0.70;;;9.90;99.90;;;10.34;100.00;-20963.41;5052553;28;20462;-72
2021/05/18 00:16:45;;;;;;;0.70;0.60;;;10.00;99.90;;;10.42;100.00;-20965.63;5085125;28;21053;-72
2021/05/18 00:19:14;;;;;;;0.70;0.60;;;10.00;99.90;;;10.53;100.00;-20968.50;5052402;28;20912;-73
2021/05/18 00:21:43;;;;;;;0.90;0.80;;;10.20;99.90;;;10.56;100.00;-20969.34;5052980;28;20424;-73
2021/05/18 00:24:13;;;;;;;0.70;0.63;;;10.20;99.90;;;10.50;100.00;-20967.69;5052997;28;20892;-73
2021/05/18 00:26:41;;;;;;;0.70;0.60;;;10.20;99.90;;;10.50;100.00;-20967.81;5085802;28;20844;-73
2021/05/18 00:29:11;;;;;;;0.70;0.60;;;10.20;99.90;;;10.47;100.00;-20966.84;5051433;28;20845;-73
2021/05/18 00:31:40;;;;;;;0.70;0.60;;;10.20;99.90;;;10.50;100.00;-20967.69;5050947;28;20856;-73
2021/05/18 00:34:08;;;;;;;0.70;0.70;;;10.20;99.90;;;10.56;100.00;-20969.47;5052196;28;20433;-73
2021/05/18 00:36:36;;;;;;;0.70;0.60;;;10.20;99.90;;;10.52;100.00;-20968.25;5052267;28;20440;-73
2021/05/18 00:39:05;;;;;;;0.70;0.60;;;10.20;99.90;;;10.61;100.00;-20970.88;5052229;28;20475;-73
2021/05/18 00:41:33;;;;;;;0.70;0.57;;;10.30;99.90;;;10.59;100.00;-20970.31;5053314;28;20433;-73
2021/05/18 00:44:02;;;;;;;0.70;0.50;;;10.30;99.90;;;10.57;100.00;-20969.75;5053402;28;20428;-72
2021/05/18 00:46:29;;;;;;;0.70;0.60;;;10.20;99.90;;;10.56;100.00;-20969.34;5083737;28;20452;-73
2021/05/18 00:48:58;;;;;;;0.70;0.70;;;10.20;99.90;;;10.58;100.00;-20969.91;5051689;28;20439;-73
2021/05/18 00:51:43;;;;;;;0.70;0.60;;;10.20;99.90;;;10.60;100.00;-20970.59;5052043;28;20437;-73
2021/05/18 00:54:25;;;;;;;0.70;0.57;;;10.30;99.90;;;10.67;100.00;-20972.25;5052963;28;20474;-73
2021/05/18 00:59:54;;;;;;;0.70;0.60;;;10.40;99.90;;;11.13;100.00;-20984.97;5032616;28;20445;-72
2021/05/18 01:02:23;;;;;;;0.73;0.67;;;10.50;99.90;;;11.07;100.00;-20983.31;5053483;28;20447;-72
2021/05/18 01:05:06;;;;;;;0.70;0.70;;;10.60;99.90;;;10.95;100.00;-20980.00;5051870;28;20457;-73
2021/05/18 01:07:35;;;;;;;0.70;0.53;;;10.60;99.90;;;10.86;100.00;-20977.66;5051366;28;20450;-72
2021/05/18 01:10:05;;;;;;;0.70;0.60;;;10.50;99.90;;;10.84;100.00;-20976.94;5051979;28;20442;-72
2021/05/18 01:12:32;;;;;;;0.70;0.63;;;10.50;99.90;;;10.84;100.00;-20977.09;5053231;28;20418;-72
2021/05/18 01:15:00;;;;;;;0.70;0.60;;;10.50;99.90;;;10.89;100.00;-20978.34;5051881;28;20428;-73
2021/05/18 01:17:28;;;;;;;0.70;0.60;;;10.50;99.90;;;10.88;100.00;-20978.06;5085014;28;20917;-73
2021/05/18 01:20:05;;;;;;;0.70;0.60;;;10.50;99.90;;;10.86;100.00;-20977.50;5052623;28;20439;-72
2021/05/18 01:22:34;;;;;;;0.70;0.60;;;10.50;99.90;;;10.84;100.00;-20976.94;5052873;28;20423;-72
2021/05/18 01:25:03;;;;;;;0.73;0.70;;;10.50;99.90;;;10.81;100.00;-20976.13;5051859;28;20979;-73
2021/05/18 01:27:30;;;;;;;0.70;0.60;;;10.50;99.90;;;11.00;100.00;-20981.38;5052561;28;20442;-72
2021/05/18 01:29:58;;;;;;;0.70;0.53;;;10.50;99.90;;;10.89;100.00;-20978.47;5035103;28;20439;-72
2021/05/18 01:32:27;;;;;;;0.70;0.60;;;10.50;99.90;;;11.01;100.00;-20844.44;5053239;28;20437;-72
2021/05/18 01:34:55;;;;;;;0.70;0.60;;;10.50;99.90;;;10.98;100.00;-20748.38;5051213;28;20432;-72
2021/05/18 01:37:23;;;;;;;0.70;0.70;;;10.60;99.90;;;10.97;100.00;-20677.94;5055885;28;20452;-72
2021/05/18 01:40:08;;;;;;;0.70;0.67;;;10.60;99.90;;;10.95;100.00;-20592.06;5054376;28;20560;-72
2021/05/18 01:42:49;;;;;;;0.70;0.60;;;10.60;99.90;;;10.92;100.00;-20541.25;5039219;28;20461;-73
2021/05/18 01:45:20;;;;;;;0.70;0.60;;;10.60;99.90;;;10.86;100.00;-20462.09;5055578;28;20475;-72
2021/05/18 01:47:52;;;;;;;0.70;0.60;;;10.50;99.90;;;10.93;100.00;-20361.09;5054359;28;20932;-72
2021/05/18 01:50:33;;;;;;;0.70;0.60;;;10.50;99.90;;;10.82;100.00;-20343.13;5088076;28;20479;-72
2021/05/18 01:53:01;;;;;;;0.70;0.60;;;10.50;99.90;;;10.86;100.00;-20243.94;5054917;28;21065;-72
2021/05/18 01:56:01;;;;;;;0.70;0.60;;;10.40;99.90;;;10.77;100.00;-20316.72;5055294;28;20929;-72
2021/05/18 01:58:23;;;;;;;0.70;0.60;;;10.40;99.90;;;10.77;100.00;-20382.00;5056556;28;20528;-72
2021/05/18 02:01:03;;;;;;;0.70;0.70;;;10.40;99.90;;;10.68;100.00;-20467.28;5054601;28;20449;-72
2021/05/18 02:03:31;;;;;;;0.70;0.60;;;10.40;99.90;;;10.77;100.00;-20517.19;5070541;28;20444;-72
2021/05/18 02:06:01;;;;;;;0.70;0.60;;;10.40;99.90;;;10.86;100.00;-20504.69;5054865;28;20789;-72
2021/05/18 02:08:56;;;;;;;0.70;0.60;;;10.40;99.90;;;10.81;100.00;-20563.34;5045838;28;20478;-72
2021/05/18 02:11:31;;;;;;;0.70;0.60;;;10.40;99.90;;;10.72;100.00;-20596.00;5054552;28;20442;-73
2021/05/18 02:14:04;;;;;;;0.70;0.60;;;10.30;99.90;;;10.73;100.00;-20654.03;5056124;28;20799;-72
2021/05/18 02:16:41;;;;;;;0.70;0.63;;;10.30;99.90;;;10.92;100.00;-20686.47;5054330;28;20443;-72
2021/05/18 02:19:27;;;;;;;0.70;0.60;;;10.30;99.90;;;10.83;100.00;-20709.34;5053420;28;20486;-73
2021/05/18 02:25:01;;;;;;;0.70;0.70;;;10.30;99.90;;;10.66;100.00;-20782.25;5056160;28;20416;-72
2021/05/18 02:28:03;;;;;;;0.70;0.60;;;10.30;99.90;;;10.57;100.00;-20969.63;5054324;28;20761;-73
2021/05/18 02:30:38;;;;;;;0.70;0.60;;;10.20;99.90;;;10.51;100.00;-20968.09;5054273;28;20954;-72
2021/05/18 02:33:10;;;;;;;0.70;0.60;;;10.20;99.90;;;10.60;100.00;-20970.59;5053331;28;20455;-72
2021/05/18 02:35:41;;;;;;;0.70;0.50;;;10.20;99.90;;;10.62;100.00;-20971.00;5053726;28;20465;-73
2021/05/18 02:38:09;;;;;;;0.70;0.60;;;10.30;99.90;;;10.68;100.00;-20972.53;5055653;28;20464;-73
2021/05/18 02:40:41;;;;;;;0.70;0.60;;;10.30;99.90;;;10.76;100.00;-20974.75;5054384;28;20950;-72
2021/05/18 02:43:14;;;;;;;0.70;0.60;;;10.30;99.90;;;10.77;100.00;-20975.16;5051566;28;20509;-74
2021/05/18 02:51:02;;;;;;;0.70;0.60;;;10.40;99.90;;;10.74;100.00;-20974.19;5054218;28;20798;-73
2021/05/18 02:53:45;;;;;;;0.70;0.50;;;10.40;99.90;;;10.76;100.00;-20974.75;5053342;28;21017;-72
2021/05/18 03:01:46;;;;;;;0.70;0.60;;;10.40;99.90;;;10.86;100.00;-20977.66;5048510;28;21032;-72
2021/05/18 03:04:14;;;;;;;0.70;0.60;;;10.50;99.90;;;10.87;100.00;-20977.78;5055310;28;20502;-73
2021/05/18 03:06:41;;;;;;;0.70;0.60;;;10.40;99.90;;;10.82;100.00;-20974.66;5054760;28;20458;-73
2021/05/18 03:09:11;;;;;;;0.70;0.60;;;10.40;99.90;;;10.73;100.00;-20957.13;5053597;28;20987;-72
2021/05/18 03:11:41;;;;;;;0.70;0.60;;;10.40;99.90;;;10.85;100.00;-20920.38;5053115;28;20455;-72
2021/05/18 03:14:12;;;;;;;0.70;0.60;;;10.40;99.90;;;10.74;100.00;-20922.34;5053335;28;20920;-72
2021/05/18 03:16:41;;;;;;;0.70;0.60;;;10.40;99.90;;;10.84;100.00;-20789.66;5054427;28;20806;-72
2021/05/18 03:19:10;;;;;;;0.70;0.60;;;10.40;99.90;;;10.83;100.00;-20724.38;5054669;28;20431;-72
2021/05/18 03:21:39;;;;;;;0.70;0.60;;;10.30;99.90;;;10.75;100.00;-20757.16;5054726;28;20533;-72
2021/05/18 03:24:07;;;;;;;0.70;0.70;;;10.40;99.90;;;10.80;100.00;-20696.00;5046369;28;20482;-72
2021/05/18 03:26:42;;;;;;;0.70;0.60;;;10.40;99.90;;;10.73;100.00;-20656.53;5039620;28;20477;-72
2021/05/18 03:29:19;;;;;;;0.70;0.60;;;10.40;99.90;;;10.66;100.00;-20571.84;5049752;28;20433;-72
2021/05/18 03:34:37;;;;;;;0.70;0.60;;;10.40;99.90;;;10.84;100.00;-20418.97;5067906;28;20439;-72
2021/05/18 03:37:11;;;;;;;0.70;0.60;;;10.40;99.90;;;10.81;100.00;-20277.84;5039696;28;20444;-72
2021/05/18 03:39:40;;;;;;;0.70;0.60;;;10.50;99.90;;;10.81;100.00;-20102.41;5036822;28;20464;-72
2021/05/18 03:42:18;;;;;;;0.70;0.60;;;10.40;99.90;;;10.72;100.00;-19954.75;5053151;28;20443;-73
2021/05/18 04:17:17;;;;;;;0.70;0.60;;;10.30;99.90;;;10.67;100.00;-18193.97;5053305;28;20461;-73
2021/05/18 04:20:02;;;;;;;0.70;0.60;;;10.30;99.90;;;10.67;100.00;-18083.66;5053803;28;20528;-73
2021/05/18 04:22:53;;;;;;;0.70;0.60;;;10.30;99.90;;;10.64;100.00;-17917.75;5069692;28;20439;-75
2021/05/18 04:39:29;;;;;;;0.70;0.60;;;10.50;99.90;;;10.88;100.00;-17115.44;5051478;28;20861;-74
2021/05/18 05:01:17;;;;;;;0.70;0.60;;;10.70;99.90;;;11.12;100.00;-17880.63;5085487;28;20444;-74
2021/05/18 05:03:58;;;;;;;0.70;0.67;;;10.70;99.90;;;11.16;100.00;-18079.63;5034553;28;20439;-74
2021/05/18 05:06:32;;;;;;;0.70;0.60;;;10.70;99.90;;;11.20;100.00;-18075.53;5053866;28;20450;-74
2021/05/18 05:09:06;;;;;;;0.70;0.60;;;10.80;99.90;;;11.17;100.00;-18097.41;5057152;28;20446;-74
2021/05/18 05:14:25;;;;;;;0.70;0.60;;;10.80;99.90;;;11.23;100.00;-18588.06;5089268;28;21001;-74
2021/05/18 05:16:53;;;;;;;0.70;0.60;;;10.80;99.90;;;11.30;100.00;-18925.91;5055972;28;20416;-73
2021/05/18 05:19:21;;;;;;;0.70;0.60;;;10.90;99.90;;;11.39;100.00;-18995.72;5055546;28;20457;-74
2021/05/18 05:21:50;;;;;;;0.70;0.60;;;11.00;99.90;;;11.51;100.00;-19101.53;5055045;28;20833;-73
2021/05/18 05:24:17;;;;;;;0.70;0.60;;;11.00;99.90;;;11.46;100.00;-19431.66;5055137;28;20467;-73
2021/05/18 05:26:46;;;;;;;0.70;0.70;;;11.00;99.90;;;11.41;100.00;-19937.16;5056954;28;20475;-73
2021/05/18 05:29:15;;;;;;;0.70;0.60;;;11.00;99.90;;;11.44;100.00;-20296.66;5054913;28;20807;-74
2021/05/18 05:31:43;;;;;;;0.70;0.67;;;11.00;99.90;;;11.36;100.00;-20585.44;5056322;28;20423;-74
2021/05/18 05:34:10;;;;;;;0.70;0.60;;;11.00;99.90;;;11.46;100.00;-20638.31;5056472;28;20438;-74
2021/05/18 05:36:39;;;;;;;0.70;0.60;;;11.00;99.90;;;11.45;100.00;-20710.78;5055604;28;20930;-74
2021/05/18 05:39:25;;;;;;;0.70;0.60;;;11.10;99.90;;;11.45;100.00;-20783.50;5056566;28;20449;-73
2021/05/18 05:41:54;;;;;;;0.70;0.60;;;11.10;99.90;;;11.65;100.00;-20998.78;5038918;28;20443;-73
2021/05/18 05:44:23;;;;;;;0.70;0.70;;;11.10;99.90;;;11.87;100.00;-21004.75;5056351;28;20440;-73
2021/05/18 05:46:51;;;;;;;0.80;0.70;;;11.00;99.90;;;11.59;100.00;-20997.41;5056071;28;20471;-73
2021/05/18 05:49:20;;;;;;;0.70;0.70;;;11.00;99.90;;;11.36;100.00;-20991.19;5055533;28;20442;-75
2021/05/18 05:51:47;;;;;;;0.70;0.60;;;11.00;99.90;;;11.59;100.00;-20997.41;5054271;28;20798;-73
2021/05/18 05:54:19;;;;;;;0.70;0.60;;;11.00;99.90;;;11.55;100.00;-20996.31;5056345;28;20478;-73
2021/05/18 05:56:46;;;;;;;0.70;0.60;;;11.00;99.90;;;11.30;100.00;-20989.41;5055050;28;20417;-74
2021/05/18 05:59:17;;;;;;;0.70;0.60;;;11.00;99.90;;;11.24;100.00;-20987.88;5054080;28;20456;-73
2021/05/18 06:01:47;;;;;;;0.70;0.67;;;10.90;99.90;;;11.09;100.00;-20983.88;5055978;28;20409;-73
2021/05/18 06:04:14;;;;;;;0.70;0.60;;;10.80;99.90;;;11.21;100.00;-20734.34;5038411;28;20428;-72
2021/05/18 06:06:42;;;;;;;0.70;0.60;;;10.70;99.90;;;10.98;100.00;-19708.16;5056267;28;20457;-73
2021/05/18 06:09:10;;;;;;;0.70;0.60;;;10.60;99.90;;;10.86;100.00;-18293.66;5056223;28;20497;-73
2021/05/18 06:12:03;;;;;;;0.70;0.60;;;10.40;99.90;;;10.63;100.00;-16086.94;5054830;28;20443;-74
2021/05/18 06:47:34;;;;;;;0.70;0.60;;;9.90;99.90;;;10.39;100.00;-20964.91;5054487;28;20466;-75
2021/05/18 06:52:42;;;;;;;0.70;0.70;;;10.00;99.90;;;10.48;100.00;-20967.13;5087789;28;20428;-74
2021/05/18 06:55:14;;;;;;;0.70;0.67;;;10.10;99.90;;;10.43;100.00;-20965.88;5087184;28;20443;-74
2021/05/18 06:57:47;;;;;;;0.70;0.60;;;10.10;99.90;;;10.50;100.00;-20967.81;5054078;28;20459;-74
2021/05/18 07:00:19;;;;;;;0.70;0.60;;;10.20;99.90;;;10.52;100.00;-20968.38;5054968;28;20423;-74
2021/05/18 07:02:49;;;;;;;0.70;0.60;;;10.20;99.90;;;10.58;100.00;-20970.03;5067103;28;20474;-74
2021/05/18 07:08:04;;;;;;;0.70;0.60;;;10.20;99.90;;;10.58;100.00;-20970.03;5053564;28;21019;-75
2021/05/18 07:10:32;;;;;;;0.70;0.70;;;10.30;99.90;;;10.76;100.00;-20974.88;5053899;28;20409;-75
2021/05/18 07:12:59;;;;;;;0.70;0.60;;;10.40;99.90;;;10.87;100.00;-20977.78;5055010;28;20495;-74
2021/05/18 07:15:28;;;;;;;0.70;0.70;;;10.50;99.90;;;10.92;100.00;-20979.16;5053461;28;20482;-75
2021/05/18 07:17:57;;;;;;;0.70;0.60;;;10.50;99.90;;;10.86;100.00;-20977.50;5085371;28;20432;-74
2021/05/18 07:20:26;;;;;;;0.70;0.60;;;10.50;99.90;;;10.95;100.00;-20979.84;5053269;28;20458;-75
2021/05/18 07:22:56;;;;;;;0.70;0.60;;;10.50;99.90;;;11.19;100.00;-20986.34;5052983;28;20472;-75
2021/05/18 07:25:24;;;;;;;0.70;0.60;;;10.60;99.90;;;11.34;100.00;-20990.63;5054348;28;20452;-75
2021/05/18 07:27:51;;;;;;;0.70;0.60;;;10.70;99.90;;;11.11;100.00;-20984.28;5054600;28;20828;-75
2021/05/18 07:30:20;;;;;;;0.70;0.60;;;10.70;99.90;;;11.56;100.00;-20996.59;5054485;28;20439;-75
2021/05/18 07:32:49;;;;;;;0.70;0.60;;;11.10;99.90;;;12.01;100.00;-21008.75;5054360;28;20411;-75
2021/05/18 07:35:18;;;;;;;0.70;0.70;;;11.40;99.90;;;11.84;100.00;-21004.03;5053879;28;20508;-75
2021/05/18 07:37:48;;;;;;;0.70;0.70;;;11.40;99.90;;;11.94;100.00;-21006.81;5054206;28;20472;-74
2021/05/18 07:40:16;;;;;;;0.70;0.70;;;11.50;99.90;;;12.17;100.00;-21012.88;5053007;28;20436;-74
2021/05/18 07:42:43;;;;;;;0.80;0.70;;;11.70;99.90;;;12.44;100.00;-21020.34;5036601;28;20494;-74
2021/05/18 07:45:12;;;;;;;0.70;0.70;;;11.90;99.90;;;12.52;100.00;-21022.41;5054153;28;20492;-74
2021/05/18 07:47:39;;;;;;;0.70;0.70;;;12.00;99.90;;;12.43;100.00;-21019.91;5054071;28;20466;-74
2021/05/18 07:50:15;;;;;;;0.70;0.60;;;12.00;99.90;;;13.15;100.00;-21039.50;5053091;28;20461;-74
2021/05/18 08:06:40;;;;;;;0.70;0.60;;;12.00;99.90;;;12.74;100.00;-21028.34;5053874;28;20460;-76
2021/05/18 08:09:08;;;;;;;0.80;0.70;;;11.90;99.90;;;12.50;100.00;-21022.00;5054171;28;20489;-75
2021/05/18 08:11:35;;;;;;;0.70;0.60;;;11.70;99.90;;;12.27;100.00;-21015.78;5052824;28;20482;-75
2021/05/18 08:14:04;;;;;;;0.80;0.70;;;11.80;99.90;;;12.52;100.00;-21022.53;5053743;28;20791;-75
2021/05/18 10:16:31;;;;;;;0.70;0.50;;;17.40;99.90;;;21.10;100.00;-21253.09;5056578;28;20421;-74
2021/05/18 10:27:01;;;;;;;0.70;0.60;;;14.90;99.90;;;16.00;100.00;-21116.19;5078306;28;20964;-73
2021/05/18 10:34:57;;;;;;;0.70;0.70;;;14.00;99.90;;;14.96;100.00;-21088.41;5054145;28;20458;-74
2021/05/18 10:37:50;;;;;;;0.70;0.60;;;13.50;99.90;;;14.95;100.00;-21088.13;5081640;28;20451;-74
2021/05/18 10:40:32;;;;;;;0.80;0.70;;;13.50;99.90;;;15.49;100.00;-21102.56;5055667;28;20523;-73
2021/05/18 10:43:27;;;;;;;0.70;0.60;;;14.40;99.90;;;16.79;100.00;-21137.63;5035599;28;20406;-80
2021/05/18 10:46:10;;;;;;;0.70;0.60;;;15.70;99.90;;;16.96;100.00;-21142.00;5036061;28;20446;-73
2021/05/18 10:49:06;;;;;;;0.80;0.77;;;15.90;99.90;;;17.51;100.00;-21156.81;5066975;28;20452;-75
2021/05/18 10:51:51;;;;;;;0.70;0.70;;;15.90;99.90;;;17.85;100.00;-21166.13;5047528;28;20421;-73
2021/05/18 10:54:33;;;;;;;0.70;0.60;;;16.00;99.90;;;18.45;100.00;-21182.03;5055043;28;20465;-75
2021/05/18 10:57:20;;;;;;;0.80;0.60;;;16.50;99.90;;;18.34;100.00;-21179.28;5055212;28;20403;-74
2021/05/18 10:59:54;;;;;;;0.70;0.60;;;16.90;99.90;;;19.00;100.00;-21196.94;5055115;28;20427;-73
2021/05/18 11:02:28;;;;;;;0.70;0.60;;;16.80;99.90;;;20.04;100.00;-21224.72;5087577;28;20941;-74
2021/05/18 11:05:03;;;;;;;0.70;0.60;;;16.50;99.90;;;19.04;100.00;-21198.03;5053819;28;20759;-72
2021/05/18 11:07:35;;;;;;;0.70;0.60;;;16.10;99.90;;;18.48;100.00;-21182.84;5037072;28;20464;-75
2021/05/18 11:10:07;;;;;;;0.70;0.60;;;16.50;99.90;;;17.07;100.00;-21145.16;5069461;28;20838;-73
2021/05/18 11:12:36;;;;;;;0.70;0.60;;;16.10;99.90;;;17.58;100.00;-21158.88;5033731;28;20424;-75
2021/05/18 11:15:11;;;;;;;0.70;0.60;;;16.20;99.90;;;19.03;100.00;-21197.78;5034962;28;20430;-75
2021/05/18 11:17:42;;;;;;;0.70;0.60;;;16.40;99.90;;;19.13;100.00;-21200.38;5034678;28;20387;-75
2021/05/18 11:20:21;;;;;;;0.70;0.60;;;16.50;99.90;;;18.86;100.00;-21192.97;5033098;28;20472;-75
2021/05/18 11:25:48;;;;;;;1.77;1.27;;;16.30;99.90;;;18.01;100.00;-21170.38;5034045;28;21004;-75
2021/05/18 11:28:22;;;;;;;0.70;0.60;;;15.10;99.90;;;16.74;100.00;-21136.25;5034874;28;20434;-75
2021/05/18 11:30:53;;;;;;;0.80;0.70;;;14.30;99.90;;;15.66;100.00;-21107.13;5061423;28;20855;-73
2021/05/18 11:33:30;;;;;;;0.80;0.70;;;14.10;99.90;;;15.55;100.00;-21104.09;5036735;28;20427;-74
2021/05/18 11:36:09;;;;;;;0.80;0.67;;;13.80;99.90;;;15.11;100.00;-21092.25;5052831;28;20446;-75
2021/05/18 11:38:47;;;;;;;0.70;0.60;;;13.70;99.90;;;14.82;100.00;-21084.56;5052505;28;20506;-75
2021/05/18 11:41:19;;;;;;;0.70;0.60;;;13.80;99.90;;;14.74;100.00;-21082.34;5055563;28;20447;-75
2021/05/18 11:43:49;;;;;;;0.80;0.70;;;13.70;99.90;;;14.45;100.00;-21074.66;5052783;28;20933;-75
2021/05/18 11:46:17;;;;;;;0.70;0.60;;;13.70;99.90;;;14.45;100.00;-21074.66;5055966;28;20454;-76
2021/05/18 11:49:00;;;;;;;0.80;0.80;;;13.90;99.90;;;14.89;100.00;-21086.50;5054336;28;20998;-77
2021/05/18 11:51:39;;;;;;;0.70;0.63;;;14.10;99.90;;;15.32;100.00;-21098.03;5057901;28;20962;-76
2021/05/18 11:54:29;;;;;;;0.70;0.60;;;14.10;99.90;;;15.86;100.00;-21112.47;5032829;28;20499;-75
2021/05/18 11:57:08;;;;;;;0.70;0.60;;;14.70;99.90;;;17.05;100.00;-21144.47;5036823;28;20411;-77
2021/05/18 11:59:38;;;;;;;0.70;0.60;;;15.30;99.90;;;17.65;100.00;-21160.66;5058946;28;20492;-75
2021/05/18 12:02:06;;;;;;;0.80;0.70;;;16.30;99.90;;;18.25;100.00;-21176.81;5052658;28;20434;-77
2021/05/18 12:04:40;;;;;;;0.70;0.60;;;16.70;99.90;;;17.86;100.00;-21166.28;5052207;28;20455;-77
2021/05/18 12:07:12;;;;;;;0.70;0.60;;;16.00;99.90;;;16.70;100.00;-21135.13;5073124;28;20490;-77
2021/05/18 12:09:43;;;;;;;0.70;0.63;;;15.20;99.90;;;15.79;100.00;-21110.69;5052555;28;20489;-76
2021/05/18 12:12:16;;;;;;;0.80;0.70;;;15.00;99.90;;;15.09;100.00;-21091.84;5054139;28;20415;-77
2021/05/18 12:14:48;;;;;;;0.73;0.63;;;14.70;99.90;;;16.18;100.00;-21121.13;5051081;28;20517;-77
2021/05/18 12:17:36;;;;;;;0.70;0.70;;;15.10;99.90;;;18.01;100.00;-21170.38;5052421;28;20759;-74
2021/05/18 12:20:16;;;;;;;0.70;0.60;;;16.50;99.90;;;19.21;100.00;-21202.56;5056298;28;20436;-77
2021/05/18 12:22:47;;;;;;;0.70;0.60;;;16.60;99.90;;;19.03;100.00;-21197.78;5029118;28;20471;-74
2021/05/18 12:25:34;;;;;;;0.70;0.60;;;17.00;99.90;;;20.18;100.00;-21228.41;5052925;28;20459;-73
2021/05/18 12:28:13;;;;;;;0.70;0.60;;;17.40;99.90;;;21.28;100.00;-21257.75;5053100;28;20449;-74
2021/05/18 12:30:44;;;;;;;0.70;0.60;;;17.80;99.90;;;21.16;100.00;-21254.75;5049846;28;20442;-75
2021/05/18 12:33:12;;;;;;;0.70;0.60;;;18.00;99.90;;;21.62;100.00;-21267.03;5054302;28;20979;-75
2021/05/18 12:35:40;;;;;;;0.70;0.60;;;18.60;99.90;;;20.05;100.00;-21224.97;5054377;28;20421;-75
2021/05/18 12:38:15;;;;;;;0.70;0.50;;;18.80;99.90;;;20.09;100.00;-21226.06;5053623;28;20539;-76
2021/05/18 12:40:46;;;;;;;0.70;0.60;;;18.90;99.90;;;20.68;100.00;-21241.91;5052415;28;20827;-73
2021/05/18 12:43:19;;;;;;;0.70;0.50;;;18.70;99.90;;;21.88;100.00;-21273.97;5051816;28;20551;-73
2021/05/18 12:45:46;;;;;;;0.70;0.60;;;18.70;99.90;;;20.95;100.00;-21249.16;5051997;28;20427;-73
2021/05/18 12:48:14;;;;;;;0.70;0.60;;;18.40;99.90;;;19.85;100.00;-21219.53;5051614;28;20460;-75
2021/05/18 12:50:47;;;;;;;0.70;0.60;;;18.50;99.90;;;20.79;100.00;-21244.78;5085638;28;20979;-73
2021/05/18 12:53:23;;;;;;;0.70;0.60;;;19.00;99.90;;;19.17;100.00;-21201.47;5051329;28;20467;-74
2021/05/18 12:55:52;;;;;;;0.70;0.60;;;18.10;99.90;;;19.47;100.00;-21209.53;5053345;28;20404;-74
2021/05/18 12:58:28;;;;;;;0.70;0.60;;;17.50;99.90;;;19.28;100.00;-21204.34;5053469;28;20462;-74
2021/05/18 13:01:10;;;;;;;0.73;0.60;;;17.10;99.90;;;17.88;100.00;-21166.81;5053544;28;20412;-76
2021/05/18 13:03:38;;;;;;;0.73;0.67;;;17.00;99.90;;;19.15;100.00;-21200.91;5051800;28;20448;-75
2021/05/18 13:06:09;;;;;;;0.70;0.60;;;16.70;99.90;;;19.33;100.00;-21205.56;5053305;28;20916;-76
2021/05/18 13:08:38;;;;;;;0.80;0.60;;;17.20;99.90;;;19.04;100.00;-21197.91;5053121;28;20447;-78
2021/05/18 13:14:13;;;;;;;0.70;0.60;;;17.10;99.90;;;19.24;100.00;-21203.38;5085861;28;20510;-79
2021/05/18 13:16:47;;;;;;;0.70;0.60;;;17.10;99.90;;;18.82;100.00;-21192.16;5056819;28;20981;-75
2021/05/18 13:19:19;;;;;;;0.80;0.70;;;16.30;99.90;;;17.66;100.00;-21160.94;5051150;28;20798;-74
2021/05/18 13:21:57;;;;;;;0.80;0.60;;;15.20;99.90;;;15.56;100.00;-21104.50;5051243;28;20387;-74
2021/05/18 13:27:13;;;;;;;0.80;0.60;;;12.10;99.90;;;11.21;100.00;-20986.91;5052546;28;20428;-82
2021/05/18 13:29:40;;;;;;;0.77;0.70;;;10.40;99.90;;;10.21;100.00;-20959.78;5035639;28;20458;-80
2021/05/18 13:32:10;;;;;;;0.80;0.70;;;9.70;99.90;;;9.75;100.00;-20947.34;5058686;28;20439;-79
2021/05/18 13:34:43;;;;;;;0.73;0.70;;;9.40;99.90;;;9.73;100.00;-20946.78;5055601;28;20485;-79
2021/05/18 13:37:11;;;;;;;0.80;0.70;;;9.30;99.90;;;9.92;100.00;-20952.03;5053933;28;20807;-80
2021/05/18 13:39:39;;;;;;;0.80;0.80;;;9.40;99.90;;;10.32;100.00;-20962.84;5038818;28;20460;-79
2021/05/18 13:42:07;;;;;;;0.80;0.70;;;9.80;99.90;;;10.58;100.00;-19758.31;5071623;28;20594;-79
2021/05/18 13:44:39;;;;;;;0.80;0.70;;;10.10;99.90;;;11.20;100.00;-12593.59;5055340;28;20417;-80
2021/05/18 13:47:07;;;;;;;0.70;0.70;;;10.40;99.90;;;12.47;100.00;524.00;5056494;28;20478;-80
2021/05/18 13:49:36;;;;;;;0.70;0.70;;;11.60;99.90;;;13.51;100.00;14176.47;5054857;28;20487;-82
2021/05/18 13:52:15;;;;;;;0.70;0.60;;;12.50;99.90;;;14.11;100.00;26290.75;5054442;28;20439;-82
2021/05/18 13:54:42;;;;;;;0.80;0.70;;;13.00;99.90;;;15.53;100.00;38580.47;5055054;28;20497;-81
2021/05/18 13:57:10;;;;;;;0.70;0.60;;;14.20;99.90;;;16.59;100.00;44578.19;5038684;28;20438;-80
2021/05/18 13:59:38;;;;;;;0.70;0.60;;;15.20;99.90;;;17.33;100.00;45762.91;5054952;28;20508;-84
2021/05/18 14:02:06;;;;;;;0.70;0.70;;;15.90;99.90;;;17.91;100.00;34454.16;5055902;28;20808;-81
2021/05/18 14:04:35;;;;;;;0.80;0.70;;;16.00;99.90;;;18.21;100.00;16648.53;5054606;28;20468;-81
2021/05/18 14:07:39;;;;;;;0.70;0.60;;;15.80;99.90;;;19.29;100.00;-4057.78;5074188;28;20860;-80
2021/05/18 14:10:18;;;;;;;0.70;0.70;;;16.40;99.90;;;20.62;100.00;-21240.28;5059594;28;20482;-84
2021/05/18 14:12:45;;;;;;;0.70;0.60;;;16.90;99.90;;;19.30;100.00;-21204.88;5054555;28;20451;-79
2021/05/18 14:15:14;;;;;;;0.70;0.60;;;15.90;99.90;;;18.81;100.00;-21191.88;5037314;28;20446;-79
2021/05/18 14:17:42;;;;;;;0.70;0.60;;;16.00;99.90;;;19.31;100.00;-21205.28;5055730;28;20526;-79
2021/05/18 14:20:11;;;;;;;0.70;0.60;;;16.40;99.90;;;18.34;100.00;-21179.28;5054233;28;20452;-78
2021/05/18 14:22:38;;;;;;;0.70;0.60;;;15.70;99.90;;;18.62;100.00;-21186.69;5071326;28;20514;-80
2021/05/18 14:25:11;;;;;;;0.70;0.60;;;16.00;99.90;;;17.93;100.00;-21168.06;5053200;28;20492;-81
2021/05/18 14:27:56;;;;;;;0.70;0.60;;;15.70;99.90;;;16.53;100.00;-21130.47;5054725;28;20448;-76
2021/05/18 14:30:26;;;;;;;0.80;0.70;;;14.90;99.90;;;16.11;100.00;-21119.22;5057394;28;20491;-79
2021/05/18 14:32:54;;;;;;;0.80;0.80;;;14.70;99.90;;;15.41;100.00;-21100.50;5039344;28;20486;-78
2021/05/18 14:35:22;;;;;;;0.70;0.60;;;14.10;99.90;;;14.74;100.00;-21082.34;5055751;28;20470;-79
2021/05/18 14:37:56;;;;;;;0.70;0.60;;;13.70;99.90;;;14.34;100.00;-21071.63;5055802;28;20538;-78
2021/05/18 14:40:39;;;;;;;0.80;0.70;;;13.60;99.90;;;13.93;100.00;-21060.47;5087196;28;20520;-78
2021/05/18 14:45:52;;;;;;;0.80;0.70;;;13.10;99.90;;;13.23;100.00;-21041.72;5087338;28;20433;-78
2021/05/18 14:56:29;;;;;;;0.80;0.70;;;12.20;99.90;;;12.53;100.00;-3104.97;5056243;28;20438;-78
2021/05/18 14:58:56;;;;;;;0.70;0.60;;;12.10;99.90;;;12.46;100.00;3225.56;5055725;28;20466;-78
2021/05/18 15:01:25;;;;;;;0.77;0.70;;;12.00;99.90;;;12.39;100.00;7402.44;5027417;28;20847;-77
2021/05/18 15:03:53;;;;;;;0.70;0.70;;;11.90;99.90;;;12.37;100.00;10803.75;5065783;28;20862;-78
2021/05/18 15:06:21;;;;;;;0.73;0.70;;;11.90;99.90;;;12.27;100.00;12094.91;5016111;28;20445;-78
2021/05/18 15:08:49;;;;;;;0.80;0.70;;;11.80;99.90;;;12.22;100.00;12737.75;5032730;28;20523;-78
2021/05/18 15:11:17;;;;;;;0.70;0.70;;;11.80;99.90;;;12.25;100.00;12495.03;5033071;28;20450;-77
2021/05/18 15:13:45;;;;;;;0.70;0.63;;;11.80;99.90;;;12.27;100.00;11029.53;5033096;28;20789;-78
2021/05/18 15:16:12;;;;;;;0.70;0.70;;;11.80;99.90;;;12.20;100.00;8984.75;5043460;28;20436;-77
2021/05/18 15:18:44;;;;;;;0.80;0.70;;;11.70;99.90;;;12.21;100.00;7307.97;5053315;28;20971;-78
2021/05/18 15:21:11;;;;;;;0.70;0.70;;;11.70;99.90;;;12.18;100.00;4965.47;5053196;28;20898;-78
2021/05/18 15:23:40;;;;;;;0.80;0.70;;;11.70;99.90;;;12.20;100.00;3121.25;5054265;28;20471;-77
2021/05/18 15:26:08;;;;;;;0.70;0.60;;;11.70;99.90;;;12.19;100.00;1467.28;5054826;28;20467;-78